NCAR-RAP Real-Time Weather Data

Output produced by METARs form (21 May 2019  10:25 UTC)
found at http://weather.rap.ucar.edu/surface/
 
RJEB 210700Z 14014KT 9999 FEW030 SCT060 BKN/// 21/14 Q0998
RJEB 210600Z 15017G27KT 9999 FEW030 SCT070 BKN/// 21/13 Q0998
RJEB 210500Z 16017G30KT 9999 FEW030 SCT140 BKN/// 21/13 Q0999
RJEB 210400Z 15015KT 9999 -SHRA FEW030 BKN140 20/13 Q1000
RJEB 210300Z 15018KT 9999 FEW030 BKN150 20/13 Q1000
RJEB 210200Z 14018KT 9999 -SHRA FEW030 SCT050 BKN100 19/12 Q1001
RJEB 210100Z 13019KT 9999 FEW030 BKN130 18/12 Q1001
RJEB 210000Z 14019KT 9999 FEW060 SCT070 BKN/// 19/13 Q1002
RJEB 200700Z 16019KT CAVOK 25/09 Q1006
RJEB 200600Z 16019KT CAVOK 26/09 Q1006
RJEB 200500Z 16015KT CAVOK 28/09 Q1007
RJEB 200400Z VRB02KT CAVOK 22/10 Q1009
RJEB 200300Z 05004KT 360V100 CAVOK 21/10 Q1010
RJEB 200200Z 01003KT 310V060 CAVOK 21/11 Q1010
RJEB 200100Z 36006KT CAVOK 18/11 Q1010
RJEB 200000Z 33008KT CAVOK 21/12 Q1011
RJEB 190700Z 12009KT 9999 FEW050 BKN/// 24/11 Q1016
RJEB 190600Z 11008KT 9999 FEW050 BKN/// 23/11 Q1016
RJEB 190500Z 11007KT 9999 FEW050 SCT080 24/10 Q1016
RJEB 190400Z 08008KT 010V140 9999 FEW050 SCT/// 23/10 Q1016
RJEB 190300Z 08005KT 040V120 9999 FEW050 SCT/// 23/10 Q1017
RJEB 190200Z 27013KT 240V300 9999 FEW050 BKN/// 27/09 Q1017
RJEB 190100Z 26011KT 220V290 9999 FEW050 BKN/// 26/09 Q1017
RJEB 190000Z 25009KT 9999 FEW050 BKN/// 25/10 Q1018